Terminal Aerodrome Forecast
Issued by NWS Twin Cities, MN

Home | Current Version | Previous Version | Text Only | Print | Product List | Glossary On
Versions: 1 2 3 4 5 6 7 8 9 10 11 12 13 14 15 16 17 18 19 20
000
FTUS43 KMPX 172112 AAB
TAFSTC
TAF AMD
KSTC 172112Z 1721/1818 VRB05KT P6SM BKN015 BKN120
     FM180100 35006KT P6SM BKN015 BKN100
     FM180500 34007KT P6SM BKN100
     FM181600 32013KT P6SM FEW200=

USA.gov is the U.S. government's official web portal to all federal, state and local government web resources and services.